Position Fahrer Laps Zeit Diff Beste Runde Fahrzeug Status Gesamt Bonuspunkte Strafpunkte
1 Patrick Barth 20 31:21.510 - 1:33.340 BMW M3 E30 Gr.A 92 Beendet 30 0 0
2 Manuel Kwiatkowski 20 31:25.722 0:04.212 1:33.513 BMW M3 E30 Gr.A 92 Beendet 27,5 0 0
3 Martin Petermann 20 31:28.937 0:07.427 1:33.415 BMW M3 E30 Gr.A 92 Beendet 25,5 0 0
4 Christian Lasse 20 31:29.022 0:07.512 1:32.842 Ford Mustang GT DTM Beendet 24 0 0
5 Alex Krueger 20 31:41.741 0:20.231 1:33.934 Mercedes-Benz 190E EVO II Beendet 23 0 0
6 Dirk Baedorf 20 31:42.566 0:21.056 1:33.734 BMW M3 E30 Gr.A 92 Beendet 22 0 0
7 Knut Mattheisen 20 31:42.924 0:21.414 1:33.915 BMW M3 E30 Gr.A 92 Beendet 21 0 0
8 Stefan Findeklee 20 31:44.535 0:23.025 1:33.531 Mercedes-Benz 190E EVO II Beendet 20 0 0
9 Ronny Krey 20 31:48.693 0:27.183 1:33.734 BMW M3 E30 Gr.A 92 Beendet 19 0 0
10 Tino Kerkow 20 31:51.209 0:29.699 1:33.935 BMW M3 E30 Gr.A 92 Beendet 18 0 0
11 Daniel Weidmann 20 32:08.594 0:47.084 1:34.962 BMW M3 E30 Gr.A 92 Beendet 17 0 0
12 Ralf Gebhard 20 32:11.331 0:49.821 1:34.880 BMW M3 E30 Gr.A 92 Beendet 16,5 0 0
13 Michael Garscha 20 32:16.830 0:55.320 1:34.151 Audi V8 DTM Beendet 16 0 0
14 Wolfgang Beuth 20 32:23.789 1:02.279 1:35.662 BMW M3 E30 Gr.A 92 Beendet 15,5 0 0
15 Tom Knost 20 32:24.091 1:02.581 1:34.693 Mercedes-Benz 190E EVO II Beendet 15 0 0
16 Nils Bauckhage 20 32:24.601 1:03.091 1:34.671 Audi V8 DTM Beendet 14,5 0 0
17 Peter Krippner 20 32:33.242 1:11.732 1:35.572 Audi V8 DTM Beendet 14 0 0
18 Stefan Schreiner 20 32:33.569 1:12.059 1:34.981 BMW M3 E30 Gr.A 92 Beendet 13,5 0 0
19 Markus Kreß 20 32:34.074 1:12.564 1:35.271 BMW M3 E30 Gr.A 92 Beendet 13 0 0
20 Christian Baedorf 20 32:41.251 1:19.741 1:35.414 BMW M3 E30 Gr.A 92 Beendet 12,5 0 0
21 Dirk Gretschel 20 32:43.173 1:21.663 1:34.072 BMW M3 E30 Gr.A 92 Beendet 12 0 0
22 Michael Czortek 20 32:45.628 1:24.118 1:35.814 BMW M3 E30 Gr.A 92 Beendet 11,5 0 0
23 Michael Heinrichs 20 32:51.533 1:30.023 1:35.934 BMW M3 E30 Gr.A 92 Beendet 11 0 0
24 Daniel Rädel 20 32:55.883 1:34.373 1:35.788 Opel Omega 3000 Evo500 Beendet 10,5 0 0
25 Steffen Weiß 19 32:41.964 -1L 1:37.258 Ford Mustang GT DTM Beendet 10 0 0
26 Timo Konietzny 14 23:02.559 -6L 1:36.578 Ford Mustang GT DTM DNF 0 0 0
27 Dieter Cerha 13 21:18.513 -7L 1:34.435 Opel Omega 3000 Evo500 DNF 0 0 0
28 Michael Morgenthal 1 - -19L - Ford Mustang GT DTM DNF 0 0 0

Rennverlauf

Die schnellsten 5 pro Runde

Runde 1

Pos Rennpos Fahrer Zeit Diff
1 2 Patrick Barth 1:38.879 -
2 3 Manuel Kwiatkowski 1:40.097 0:01.218
3 4 Martin Petermann 1:41.452 0:02.573
4 5 Stefan Findeklee 1:41.816 0:02.937
5 6 Ronny Krey 1:42.042 0:03.163

Runde 2

Pos Rennpos Fahrer Zeit Diff
1 1 Patrick Barth 1:33.697 -
2 2 Manuel Kwiatkowski 1:33.941 0:00.244
3 10 Dieter Cerha 1:34.435 0:00.738
4 3 Martin Petermann 1:34.604 0:00.907
5 9 Dirk Baedorf 1:34.818 0:01.121

Runde 3

Pos Rennpos Fahrer Zeit Diff
1 2 Manuel Kwiatkowski 1:33.931 -
2 1 Patrick Barth 1:34.042 0:00.111
3 3 Martin Petermann 1:34.467 0:00.536
4 5 Alex Krueger 1:34.570 0:00.639
5 10 Tino Kerkow 1:34.725 0:00.794

Runde 4

Pos Rennpos Fahrer Zeit Diff
1 1 Patrick Barth 1:33.783 -
2 2 Manuel Kwiatkowski 1:33.802 0:00.019
3 3 Martin Petermann 1:34.142 0:00.359
4 6 Christian Lasse 1:35.459 0:01.676
5 7 Tino Kerkow 1:35.483 0:01.700

Runde 5

Pos Rennpos Fahrer Zeit Diff
1 1 Patrick Barth 1:33.800 -
2 3 Martin Petermann 1:33.947 0:00.147
3 2 Manuel Kwiatkowski 1:34.086 0:00.286
4 6 Christian Lasse 1:34.618 0:00.818
5 4 Alex Krueger 1:34.646 0:00.846

Runde 6

Pos Rennpos Fahrer Zeit Diff
1 1 Patrick Barth 1:33.401 -
2 2 Manuel Kwiatkowski 1:33.720 0:00.319
3 3 Martin Petermann 1:34.060 0:00.659
4 4 Alex Krueger 1:34.155 0:00.754
5 5 Knut Mattheisen 1:34.473 0:01.072

Runde 7

Pos Rennpos Fahrer Zeit Diff
1 5 Christian Lasse 1:33.475 -
2 1 Patrick Barth 1:33.728 0:00.253
3 3 Martin Petermann 1:33.905 0:00.430
4 2 Manuel Kwiatkowski 1:34.056 0:00.581
5 7 Dirk Baedorf 1:34.123 0:00.648

Runde 8

Pos Rennpos Fahrer Zeit Diff
1 4 Christian Lasse 1:33.754 -
2 2 Manuel Kwiatkowski 1:33.921 0:00.167
3 3 Martin Petermann 1:34.002 0:00.248
4 10 Ronny Krey 1:34.071 0:00.317
5 1 Patrick Barth 1:34.074 0:00.320

Runde 9

Pos Rennpos Fahrer Zeit Diff
1 4 Christian Lasse 1:33.513 -
2 1 Patrick Barth 1:33.776 0:00.263
3 2 Manuel Kwiatkowski 1:33.963 0:00.450
4 3 Martin Petermann 1:34.265 0:00.752
5 5 Alex Krueger 1:34.283 0:00.770

Runde 10

Pos Rennpos Fahrer Zeit Diff
1 4 Christian Lasse 1:33.103 -
2 1 Patrick Barth 1:33.607 0:00.504
3 2 Manuel Kwiatkowski 1:33.630 0:00.527
4 8 Stefan Findeklee 1:34.332 0:01.229
5 5 Alex Krueger 1:34.382 0:01.279

Runde 11

Pos Rennpos Fahrer Zeit Diff
1 1 Patrick Barth 1:33.736 -
2 3 Martin Petermann 1:34.068 0:00.332
3 2 Manuel Kwiatkowski 1:34.151 0:00.415
4 4 Christian Lasse 1:34.239 0:00.503
5 8 Stefan Findeklee 1:34.383 0:00.647

Runde 12

Pos Rennpos Fahrer Zeit Diff
1 1 Patrick Barth 1:33.484 -
2 3 Martin Petermann 1:33.847 0:00.363
3 8 Stefan Findeklee 1:34.039 0:00.555
4 4 Christian Lasse 1:34.273 0:00.789
5 5 Alex Krueger 1:34.368 0:00.884

Runde 13

Pos Rennpos Fahrer Zeit Diff
1 1 Patrick Barth 1:33.340 -
2 4 Christian Lasse 1:33.607 0:00.267
3 10 Ronny Krey 1:33.734 0:00.394
4 2 Manuel Kwiatkowski 1:33.811 0:00.471
5 8 Stefan Findeklee 1:33.814 0:00.474

Runde 14

Pos Rennpos Fahrer Zeit Diff
1 4 Christian Lasse 1:33.301 -
2 2 Manuel Kwiatkowski 1:33.699 0:00.398
3 1 Patrick Barth 1:33.702 0:00.401
4 3 Martin Petermann 1:33.793 0:00.492
5 6 Dirk Baedorf 1:33.918 0:00.617

Runde 15

Pos Rennpos Fahrer Zeit Diff
1 4 Christian Lasse 1:33.134 -
2 2 Manuel Kwiatkowski 1:33.572 0:00.438
3 6 Dirk Baedorf 1:33.734 0:00.600
4 3 Martin Petermann 1:34.028 0:00.894
5 15 Michael Garscha 1:34.157 0:01.023

Runde 16

Pos Rennpos Fahrer Zeit Diff
1 3 Martin Petermann 1:33.415 -
2 4 Christian Lasse 1:33.499 0:00.084
3 1 Patrick Barth 1:33.774 0:00.359
4 9 Tino Kerkow 1:34.094 0:00.679
5 7 Knut Mattheisen 1:34.312 0:00.897

Runde 17

Pos Rennpos Fahrer Zeit Diff
1 4 Christian Lasse 1:33.660 -
2 2 Manuel Kwiatkowski 1:33.765 0:00.105
3 6 Dirk Baedorf 1:33.904 0:00.244
4 10 Ronny Krey 1:33.938 0:00.278
5 5 Alex Krueger 1:33.951 0:00.291

Runde 18

Pos Rennpos Fahrer Zeit Diff
1 4 Christian Lasse 1:33.018 -
2 2 Manuel Kwiatkowski 1:33.513 0:00.495
3 8 Stefan Findeklee 1:33.682 0:00.664
4 3 Martin Petermann 1:33.839 0:00.821
5 7 Knut Mattheisen 1:33.915 0:00.897

Runde 19

Pos Rennpos Fahrer Zeit Diff
1 4 Christian Lasse 1:32.842 -
2 8 Stefan Findeklee 1:33.531 0:00.689
3 2 Manuel Kwiatkowski 1:33.677 0:00.835
4 10 Ronny Krey 1:33.828 0:00.986
5 1 Patrick Barth 1:33.864 0:01.022

Runde 20

Pos Rennpos Fahrer Zeit Diff
1 1 Patrick Barth 1:33.709 -
2 2 Manuel Kwiatkowski 1:33.858 0:00.149
3 8 Stefan Findeklee 1:34.083 0:00.374
4 5 Alex Krueger 1:34.348 0:00.639
5 13 Michael Garscha 1:34.520 0:00.811

SERVER

0 / 61
virtualracing.org #1 GTM
Training 1Lime Rock Park -- Uphill Chicane
1 / 81
virtualracing.org #3 FS
Training 1Lime Rock Park -- Uphill Chicane
0 / 81
virtualracing.org #4 LSM
Training 1Spa-Francorchamps Endurance
0 / 34
virtualracing.org #5 VRF1S
Training 1Barcelona 2021
0 / 34
virtualracing.org #6 VRCS
Training 1Donington Park National Circuit
0 / 81
virtualracing.org #P1 BTCC
WarmUpOulton Park Fosters
0 / 81
virtualracing.org #P2 CA
Training 1Anglesey Circuit - International GP
0 / 34
virtualracing.org #P3 Mini
Training 1Silverstone Historic Chicane
0 / 33
virtualracing.org #P4 IR18
Training 1Indianapolis -- Oval
0 / 104
virtualracing.org VRES L
TesttagNuerburgring -- rF2LN 24h
1 / 104
virtualracing.org VRES T
TesttagNuerburgring -- rF2LN 24h
0/31
virtualracing.org#4 GTC Training Standard
TrainingCircuito de Jerez - GP
0/31
virtualracing.org#5 GTC Training A
TrainingDaytona International Speedway - Road Course
1/16
virtualracing.org#30 ALT Training
Trainingaa_dover_speedway-nh